createdAt,value
2023-03-03T00:01:04.659Z,78.35
2023-03-03T00:05:57.680Z,79.23
2023-03-03T00:10:49.899Z,79.27
2023-03-03T00:15:43.567Z,78.72
2023-03-03T00:20:40.025Z,78.68
2023-03-03T00:25:34.494Z,79.57
2023-03-03T00:30:28.002Z,79.54
2023-03-03T00:35:24.360Z,80.21
2023-03-03T00:40:27.951Z,79.89
2023-03-03T00:45:27.081Z,80.86
2023-03-03T00:50:34.449Z,80.81
2023-03-03T00:55:26.192Z,81.00
2023-03-03T01:00:18.778Z,80.82
2023-03-03T01:05:13.697Z,81.24
2023-03-03T01:10:06.179Z,81.11
2023-03-03T01:14:59.426Z,81.39
2023-03-03T01:19:51.132Z,82.00
2023-03-03T01:24:42.879Z,81.32
2023-03-03T01:29:35.850Z,81.41
2023-03-03T01:34:28.878Z,82.00
2023-03-03T01:39:20.669Z,81.71
2023-03-03T01:44:15.514Z,82.22
2023-03-03T01:49:33.786Z,82.38
2023-03-03T01:54:32.146Z,82.56
2023-03-03T01:59:27.125Z,82.36
2023-03-03T02:04:21.809Z,82.94
2023-03-03T02:09:32.251Z,82.31
2023-03-03T02:14:25.585Z,83.33
2023-03-03T02:19:29.312Z,83.23
2023-03-03T02:24:40.061Z,83.53
2023-03-03T02:29:31.774Z,83.03
2023-03-03T02:34:24.300Z,83.74
2023-03-03T02:39:26.772Z,83.48
2023-03-03T02:44:24.411Z,83.97
2023-03-03T02:49:19.912Z,84.33
2023-03-03T02:54:14.426Z,84.08
2023-03-03T02:59:06.985Z,84.05
2023-03-03T03:04:16.387Z,84.59
2023-03-03T03:09:12.221Z,85.04
2023-03-03T03:14:05.838Z,84.24
2023-03-03T03:19:00.308Z,82.65
2023-03-03T03:23:53.759Z,82.64
2023-03-03T03:28:45.871Z,81.17
2023-03-03T03:33:37.983Z,80.60
2023-03-03T03:38:31.538Z,81.09
2023-03-03T03:43:23.849Z,80.36
2023-03-03T03:48:16.780Z,80.67
2023-03-03T03:53:10.865Z,80.63
2023-03-03T03:58:03.351Z,79.59
2023-03-03T04:02:55.430Z,79.53
2023-03-03T04:07:47.624Z,79.18
2023-03-03T04:12:42.223Z,78.72
2023-03-03T04:17:38.238Z,78.89
2023-03-03T04:22:35.006Z,78.60
2023-03-03T04:27:27.668Z,78.17
2023-03-03T04:32:19.302Z,77.48
2023-03-03T04:37:12.698Z,78.62
2023-03-03T04:42:04.585Z,78.67
2023-03-03T04:46:56.274Z,78.67
2023-03-03T04:51:48.445Z,77.73
2023-03-03T04:56:40.384Z,77.44
2023-03-03T05:01:32.946Z,76.89
2023-03-03T05:06:25.637Z,76.82
2023-03-03T05:11:17.362Z,76.76
2023-03-03T05:16:09.449Z,76.70
2023-03-03T05:21:01.356Z,76.95
2023-03-03T05:25:53.153Z,76.41
2023-03-03T05:30:45.280Z,77.31
2023-03-03T05:35:37.020Z,77.21
2023-03-03T05:40:28.787Z,76.35
2023-03-03T05:45:21.293Z,76.72
2023-03-03T05:50:13.878Z,76.06
2023-03-03T05:55:06.322Z,77.00
2023-03-03T05:59:58.185Z,76.40
2023-03-03T06:04:50.094Z,76.61
2023-03-03T06:09:41.877Z,75.97
2023-03-03T06:14:33.850Z,76.71
2023-03-03T06:19:25.983Z,76.44
2023-03-03T06:24:17.761Z,75.94
2023-03-03T06:29:09.515Z,75.89
2023-03-03T06:34:01.368Z,75.37
2023-03-03T06:38:53.167Z,75.51
2023-03-03T06:43:45.119Z,75.27
2023-03-03T06:48:36.866Z,76.18
2023-03-03T06:53:31.522Z,75.61
2023-03-03T06:58:24.552Z,75.69
2023-03-03T07:03:21.708Z,75.57
2023-03-03T07:08:18.730Z,75.23
2023-03-03T07:13:24.642Z,74.93
2023-03-03T07:19:01.657Z,74.30
2023-03-03T07:23:54.284Z,74.34
2023-03-03T07:28:54.870Z,74.13
2023-03-03T07:33:46.920Z,74.19
2023-03-03T07:38:42.865Z,74.22
2023-03-03T07:43:37.216Z,74.21
2023-03-03T07:48:37.872Z,73.34
2023-03-03T07:53:34.820Z,73.64
2023-03-03T07:58:41.030Z,73.16
2023-03-03T08:03:36.896Z,72.26
2023-03-03T08:08:34.791Z,71.30
2023-03-03T08:13:38.305Z,71.62
2023-03-03T08:18:36.103Z,71.78
2023-03-03T08:23:27.901Z,71.17
2023-03-03T08:28:20.918Z,71.24
2023-03-03T08:33:14.643Z,70.75
2023-03-03T08:38:06.687Z,69.78
2023-03-03T08:42:58.460Z,69.86
2023-03-03T08:47:50.276Z,70.35
2023-03-03T08:52:42.172Z,69.72
2023-03-03T08:57:34.121Z,68.84
2023-03-03T09:02:25.782Z,68.50
2023-03-03T09:07:17.529Z,68.13
2023-03-03T09:12:40.250Z,67.08
2023-03-03T09:17:37.595Z,67.34
2023-03-03T09:22:29.443Z,66.14
2023-03-03T09:27:35.380Z,65.83
2023-03-03T09:32:34.852Z,65.99
2023-03-03T09:37:36.463Z,65.84
2023-03-03T09:42:43.351Z,64.06
2023-03-03T09:48:04.682Z,64.00
2023-03-03T09:53:03.879Z,64.13
2023-03-03T09:58:33.077Z,62.94
2023-03-03T10:03:40.065Z,63.13
2023-03-03T10:09:10.058Z,62.77
2023-03-03T10:14:14.499Z,62.47
2023-03-03T10:19:37.070Z,61.98
2023-03-03T10:24:31.924Z,61.55
2023-03-03T10:29:50.797Z,60.34
2023-03-03T10:35:11.425Z,60.42
2023-03-03T10:40:21.457Z,59.16
2023-03-03T10:45:38.925Z,59.85
2023-03-03T10:50:37.798Z,59.25
2023-03-03T10:55:39.763Z,58.49
2023-03-03T11:00:52.516Z,57.36
2023-03-03T11:06:29.619Z,56.63
2023-03-03T11:11:27.343Z,55.76
2023-03-03T11:16:19.010Z,55.82
2023-03-03T11:21:34.251Z,56.41
2023-03-03T11:26:43.878Z,55.92
2023-03-03T11:31:45.386Z,55.26
2023-03-03T11:36:43.544Z,55.68
2023-03-03T11:41:42.454Z,55.86
2023-03-03T11:46:48.570Z,54.48
2023-03-03T11:51:43.298Z,53.77
2023-03-03T11:56:38.114Z,54.03
2023-03-03T12:01:47.000Z,53.71
2023-03-03T12:06:54.206Z,51.09
2023-03-03T12:12:07.425Z,52.04
2023-03-03T12:17:21.637Z,51.04
2023-03-03T12:22:31.399Z,50.88
2023-03-03T12:27:47.866Z,50.00
2023-03-03T12:32:48.612Z,50.64
2023-03-03T12:37:48.133Z,52.04
2023-03-03T12:43:01.974Z,51.75
2023-03-03T12:48:45.648Z,50.25
2023-03-03T12:54:09.909Z,50.69
2023-03-03T12:59:09.151Z,51.44
2023-03-03T13:04:08.601Z,51.35
2023-03-03T13:09:32.056Z,50.84
2023-03-03T13:15:18.405Z,51.06
2023-03-03T13:20:38.270Z,51.22
2023-03-03T13:25:47.398Z,51.19
2023-03-03T13:30:44.777Z,50.30
2023-03-03T13:35:47.118Z,49.98
2023-03-03T13:40:49.057Z,50.37
2023-03-03T13:45:50.030Z,50.63
2023-03-03T13:50:56.518Z,51.31
2023-03-03T13:56:00.043Z,51.80
2023-03-03T14:01:01.899Z,51.44
2023-03-03T14:06:04.317Z,51.82
2023-03-03T14:11:15.122Z,53.01
2023-03-03T14:16:31.579Z,54.49
2023-03-03T14:21:49.664Z,55.35
2023-03-03T14:27:22.731Z,57.46
2023-03-03T14:32:35.849Z,57.14
2023-03-03T14:37:46.264Z,57.24
2023-03-03T14:42:45.588Z,57.52
2023-03-03T14:47:39.429Z,57.24
2023-03-03T14:52:33.892Z,57.95
2023-03-03T14:57:41.593Z,57.49
2023-03-03T15:03:09.071Z,58.22
2023-03-03T15:08:04.476Z,59.67
2023-03-03T15:12:56.425Z,59.79
2023-03-03T15:18:00.133Z,59.87
2023-03-03T15:23:06.641Z,59.29
2023-03-03T15:28:36.786Z,60.23
2023-03-03T15:33:35.014Z,60.78
2023-03-03T15:38:38.766Z,60.79
2023-03-03T15:43:40.325Z,60.83
2023-03-03T15:48:45.079Z,61.50
2023-03-03T15:53:51.382Z,62.39
2023-03-03T15:59:21.597Z,63.30
2023-03-03T16:04:19.798Z,63.24
2023-03-03T16:09:25.901Z,64.05
2023-03-03T16:15:16.209Z,63.79
2023-03-03T16:20:28.306Z,64.21
2023-03-03T16:25:42.351Z,65.59
2023-03-03T16:30:45.383Z,65.83
2023-03-03T16:35:50.422Z,66.10
2023-03-03T16:40:55.823Z,66.71
2023-03-03T16:45:48.442Z,66.46
2023-03-03T16:51:09.472Z,66.82
2023-03-03T16:56:11.119Z,67.71
2023-03-03T17:01:18.167Z,66.89
2023-03-03T17:06:17.511Z,68.40
2023-03-03T17:11:17.509Z,69.22
2023-03-03T17:16:25.967Z,69.68
2023-03-03T17:21:28.940Z,70.38
2023-03-03T17:26:58.237Z,71.11
2023-03-03T17:32:23.741Z,71.39
2023-03-03T17:37:24.774Z,72.14
2023-03-03T17:42:42.672Z,72.95
2023-03-03T17:47:55.754Z,73.72
2023-03-03T17:53:06.315Z,73.62
2023-03-03T17:58:10.046Z,74.11
2023-03-03T18:03:20.246Z,74.21
2023-03-03T18:08:36.736Z,74.27
2023-03-03T18:13:40.661Z,74.80
2023-03-03T18:18:45.450Z,74.63
2023-03-03T18:23:43.521Z,74.84
2023-03-03T18:28:47.464Z,75.79
2023-03-03T18:34:03.780Z,75.59
2023-03-03T18:38:57.637Z,75.47
2023-03-03T18:43:53.893Z,75.84
2023-03-03T18:48:50.449Z,76.07
2023-03-03T18:54:01.580Z,76.14
2023-03-03T18:58:53.748Z,76.34
2023-03-03T19:03:48.185Z,76.32
2023-03-03T19:08:53.720Z,76.38
2023-03-03T19:13:46.919Z,76.83
2023-03-03T19:18:41.595Z,77.05
2023-03-03T19:23:53.449Z,77.41
2023-03-03T19:29:08.746Z,77.62
2023-03-03T19:34:12.717Z,77.76
2023-03-03T19:39:19.605Z,78.30
2023-03-03T19:44:44.742Z,78.15
2023-03-03T19:49:51.601Z,78.31
2023-03-03T19:54:54.499Z,77.98
2023-03-03T19:59:58.423Z,77.79
2023-03-03T20:05:24.390Z,77.21
2023-03-03T20:10:16.088Z,77.78
2023-03-03T20:15:12.443Z,77.19
2023-03-03T20:20:37.653Z,77.37
2023-03-03T20:25:43.547Z,77.07
2023-03-03T20:30:48.666Z,75.89
2023-03-03T20:35:53.416Z,75.94
2023-03-03T20:41:17.634Z,75.26
2023-03-03T20:46:34.206Z,74.37
2023-03-03T20:51:44.777Z,73.60
2023-03-03T20:56:44.190Z,72.95
2023-03-03T21:01:57.896Z,72.65
2023-03-03T21:06:50.393Z,72.18
2023-03-03T21:11:44.075Z,71.85
2023-03-03T21:16:36.040Z,71.44
2023-03-03T21:21:30.706Z,70.65
2023-03-03T21:26:49.439Z,70.92
2023-03-03T21:31:53.197Z,69.97
2023-03-03T21:36:49.323Z,70.70
2023-03-03T21:41:52.079Z,69.80
2023-03-03T21:46:43.922Z,70.10
2023-03-03T21:51:35.670Z,69.65
2023-03-03T21:56:27.411Z,69.62
2023-03-03T22:01:19.253Z,69.53
2023-03-03T22:06:10.997Z,70.11
2023-03-03T22:11:02.694Z,70.11
2023-03-03T22:15:55.247Z,70.31
2023-03-03T22:20:48.200Z,70.04
2023-03-03T22:25:39.973Z,70.01
2023-03-03T22:30:31.995Z,69.56
2023-03-03T22:35:23.937Z,70.02
2023-03-03T22:40:15.866Z,69.91
2023-03-03T22:45:10.080Z,69.52
2023-03-03T22:50:03.824Z,69.56
2023-03-03T22:54:58.360Z,69.50
2023-03-03T22:59:50.076Z,69.98
2023-03-03T23:04:41.782Z,69.66
2023-03-03T23:09:34.034Z,69.72
2023-03-03T23:14:26.026Z,70.15
2023-03-03T23:19:17.831Z,69.94
2023-03-03T23:24:11.125Z,69.50
2023-03-03T23:36:52.485Z,68.61
2023-03-03T23:41:45.136Z,68.47
2023-03-03T23:46:38.053Z,68.09
2023-03-03T23:51:30.247Z,68.11
2023-03-03T23:56:22.069Z,68.12
